createdAt,value
2022-11-14T00:00:34.488Z,6.40
2022-11-14T00:03:03.091Z,6.30
2022-11-14T00:05:30.083Z,6.30
2022-11-14T00:07:57.142Z,6.40
2022-11-14T00:10:24.214Z,6.40
2022-11-14T00:12:51.021Z,6.30
2022-11-14T00:15:17.821Z,6.30
2022-11-14T00:17:44.434Z,6.30
2022-11-14T00:20:12.241Z,6.30
2022-11-14T00:22:38.846Z,6.20
2022-11-14T00:25:06.005Z,6.20
2022-11-14T00:27:32.568Z,6.10
2022-11-14T00:29:59.148Z,6.10
2022-11-14T00:32:25.722Z,6.10
2022-11-14T00:34:52.292Z,6.10
2022-11-14T00:37:18.888Z,6.10
2022-11-14T00:39:45.499Z,6.00
2022-11-14T00:42:12.068Z,6.00
2022-11-14T00:44:38.663Z,5.90
2022-11-14T00:47:05.360Z,5.90
2022-11-14T00:49:32.004Z,5.90
2022-11-14T00:51:58.656Z,5.90
2022-11-14T00:54:26.622Z,5.90
2022-11-14T00:56:53.280Z,6.00
2022-11-14T00:59:19.876Z,6.00
2022-11-14T01:01:46.484Z,5.90
2022-11-14T01:04:13.069Z,6.00
2022-11-14T01:06:39.629Z,6.00
2022-11-14T01:09:07.100Z,6.00
2022-11-14T01:11:33.694Z,5.90
2022-11-14T01:14:00.264Z,5.80
2022-11-14T01:16:26.827Z,5.80
2022-11-14T01:18:53.448Z,5.90
2022-11-14T01:21:20.030Z,6.00
2022-11-14T01:23:46.617Z,6.00
2022-11-14T01:26:14.407Z,6.00
2022-11-14T01:28:41.325Z,5.90
2022-11-14T01:31:16.261Z,5.90
2022-11-14T01:33:42.996Z,5.80
2022-11-14T01:36:10.341Z,5.70
2022-11-14T01:38:37.692Z,5.80
2022-11-14T01:41:05.569Z,5.80
2022-11-14T01:43:37.644Z,5.80
2022-11-14T01:46:04.409Z,5.70
2022-11-14T01:48:39.036Z,5.70
2022-11-14T01:51:28.622Z,5.70
2022-11-14T01:53:58.657Z,5.70
2022-11-14T01:56:31.970Z,5.70
2022-11-14T01:59:12.185Z,5.70
2022-11-14T02:01:45.746Z,5.70
2022-11-14T02:04:17.628Z,5.70
2022-11-14T02:06:46.142Z,5.70
2022-11-14T02:09:12.789Z,5.60
2022-11-14T02:11:43.357Z,5.60
2022-11-14T02:14:10.481Z,5.70
2022-11-14T02:16:39.724Z,5.70
2022-11-14T02:19:06.362Z,5.70
2022-11-14T02:21:32.973Z,5.80
2022-11-14T02:23:59.552Z,5.70
2022-11-14T02:26:26.168Z,5.80
2022-11-14T02:28:52.807Z,5.70
2022-11-14T02:31:19.443Z,5.80
2022-11-14T02:33:46.016Z,5.80
2022-11-14T02:36:12.566Z,5.70
2022-11-14T02:38:39.177Z,5.70
2022-11-14T02:41:05.915Z,5.70
2022-11-14T02:43:32.512Z,5.70
2022-11-14T02:46:04.304Z,5.70
2022-11-14T02:48:32.345Z,5.60
2022-11-14T02:50:59.270Z,5.70
2022-11-14T02:53:25.885Z,5.70
2022-11-14T02:55:52.495Z,5.80
2022-11-14T02:58:19.120Z,5.80
2022-11-14T03:01:13.526Z,5.70
2022-11-14T03:03:32.639Z,5.80
2022-11-14T03:06:03.597Z,5.80
2022-11-14T03:08:30.570Z,5.80
2022-11-14T03:11:04.988Z,5.90
2022-11-14T03:13:31.640Z,5.90
2022-11-14T03:15:58.216Z,5.90
2022-11-14T03:18:24.891Z,5.90
2022-11-14T03:20:51.639Z,6.00
2022-11-14T03:23:18.212Z,6.00
2022-11-14T03:25:44.798Z,6.10
2022-11-14T03:28:11.352Z,6.20
2022-11-14T03:30:37.922Z,6.20
2022-11-14T03:33:04.515Z,6.30
2022-11-14T03:35:31.101Z,6.30
2022-11-14T03:37:57.680Z,6.30
2022-11-14T03:40:24.263Z,6.30
2022-11-14T03:42:50.854Z,6.30
2022-11-14T03:45:17.498Z,6.20
2022-11-14T03:47:44.381Z,6.30
2022-11-14T03:50:10.989Z,6.20
2022-11-14T03:52:37.550Z,6.20
2022-11-14T03:55:04.368Z,6.20
2022-11-14T03:57:31.228Z,6.20
2022-11-14T03:59:57.811Z,6.20
2022-11-14T04:02:24.410Z,6.10
2022-11-14T04:04:51.532Z,6.20
2022-11-14T04:07:18.201Z,6.10
2022-11-14T04:09:47.022Z,6.10
2022-11-14T04:12:15.928Z,6.10
2022-11-14T04:14:42.765Z,6.20
2022-11-14T04:17:09.605Z,6.10
2022-11-14T04:19:36.258Z,6.10
2022-11-14T04:22:02.962Z,6.10
2022-11-14T04:24:29.570Z,6.10
2022-11-14T04:26:56.451Z,6.10
2022-11-14T04:29:23.280Z,6.20
2022-11-14T04:31:49.907Z,6.20
2022-11-14T04:34:16.829Z,6.20
2022-11-14T04:36:43.470Z,6.30
2022-11-14T04:39:10.183Z,6.30
2022-11-14T04:41:36.788Z,6.30
2022-11-14T04:44:03.487Z,6.40
2022-11-14T04:46:30.081Z,6.30
2022-11-14T04:48:56.648Z,6.40
2022-11-14T04:51:23.330Z,6.40
2022-11-14T04:53:49.931Z,6.40
2022-11-14T04:56:16.608Z,6.50
2022-11-14T04:58:43.189Z,6.50
2022-11-14T05:01:10.529Z,6.50
2022-11-14T05:03:37.380Z,6.60
2022-11-14T05:06:04.522Z,6.50
2022-11-14T05:08:31.712Z,6.50
2022-11-14T05:10:58.694Z,6.60
2022-11-14T05:13:25.251Z,6.50
2022-11-14T05:15:51.844Z,6.50
2022-11-14T05:18:18.646Z,6.60
2022-11-14T05:20:45.297Z,6.60
2022-11-14T05:23:21.180Z,6.70
2022-11-14T05:25:58.833Z,6.70
2022-11-14T05:28:25.542Z,6.80
2022-11-14T05:30:52.319Z,6.80
2022-11-14T05:33:18.915Z,6.80
2022-11-14T05:35:45.644Z,6.80
2022-11-14T05:38:12.221Z,6.80
2022-11-14T05:40:38.809Z,6.90
2022-11-14T05:43:05.396Z,6.90
2022-11-14T05:45:32.033Z,6.90
2022-11-14T05:47:58.619Z,6.90
2022-11-14T05:50:25.258Z,6.90
2022-11-14T05:52:51.912Z,7.00
2022-11-14T05:55:24.425Z,7.10
2022-11-14T05:57:51.556Z,7.10
2022-11-14T06:00:18.402Z,7.10
2022-11-14T06:02:46.112Z,7.20
2022-11-14T06:05:12.710Z,7.20
2022-11-14T06:07:39.548Z,7.20
2022-11-14T06:10:06.717Z,7.10
2022-11-14T06:12:33.410Z,7.10
2022-11-14T06:15:00.002Z,7.10
2022-11-14T06:17:26.975Z,7.10
2022-11-14T06:19:53.570Z,7.10
2022-11-14T06:22:20.195Z,7.10
2022-11-14T06:24:46.884Z,7.10
2022-11-14T06:27:13.500Z,7.10
2022-11-14T06:29:40.229Z,7.20
2022-11-14T06:32:06.918Z,7.20
2022-11-14T06:34:33.595Z,7.20
2022-11-14T06:37:00.141Z,7.20
2022-11-14T06:39:26.717Z,7.30
2022-11-14T06:41:53.365Z,7.30
2022-11-14T06:44:19.938Z,7.40
2022-11-14T06:46:46.614Z,7.40
2022-11-14T06:49:13.217Z,7.40
2022-11-14T06:51:39.804Z,7.40
2022-11-14T06:54:06.544Z,7.50
2022-11-14T06:56:33.113Z,7.50
2022-11-14T06:58:59.674Z,7.50
2022-11-14T07:01:26.503Z,7.50
2022-11-14T07:03:53.289Z,7.50
2022-11-14T07:06:22.958Z,7.50
2022-11-14T07:08:50.063Z,7.50
2022-11-14T07:11:22.908Z,7.50
2022-11-14T07:13:54.829Z,7.50
2022-11-14T07:16:24.809Z,7.50
2022-11-14T07:18:51.522Z,7.50
2022-11-14T07:21:18.098Z,7.50
2022-11-14T07:23:44.720Z,7.50
2022-11-14T07:26:11.907Z,7.50
2022-11-14T07:28:41.544Z,7.50
2022-11-14T07:31:10.345Z,7.60
2022-11-14T07:33:36.901Z,7.60
2022-11-14T07:36:03.974Z,7.60
2022-11-14T07:38:35.152Z,7.60
2022-11-14T07:41:07.171Z,7.70
2022-11-14T07:43:33.763Z,7.60
2022-11-14T07:46:07.856Z,7.70
2022-11-14T07:48:34.647Z,7.80
2022-11-14T07:51:02.883Z,7.70
2022-11-14T07:53:29.989Z,7.70
2022-11-14T07:55:57.706Z,7.70
2022-11-14T07:58:24.337Z,7.70
2022-11-14T08:00:51.070Z,7.80
2022-11-14T08:03:17.963Z,7.80
2022-11-14T08:05:44.644Z,7.80
2022-11-14T08:08:11.324Z,7.80
2022-11-14T08:10:37.977Z,7.80
2022-11-14T08:13:34.180Z,7.90
2022-11-14T08:15:52.854Z,7.90
2022-11-14T08:18:19.753Z,8.00
2022-11-14T08:20:46.750Z,8.00
2022-11-14T08:23:14.021Z,8.00
2022-11-14T08:25:41.810Z,8.00
2022-11-14T08:28:09.022Z,8.00
2022-11-14T08:30:35.858Z,8.10
2022-11-14T08:33:03.951Z,8.10
2022-11-14T08:35:32.319Z,8.10
2022-11-14T08:38:00.561Z,8.20
2022-11-14T08:40:27.338Z,8.20
2022-11-14T08:43:01.938Z,8.20
2022-11-14T08:45:29.804Z,8.30
2022-11-14T08:47:56.753Z,8.30
2022-11-14T08:50:23.672Z,8.40
2022-11-14T08:52:51.951Z,8.30
2022-11-14T08:55:20.178Z,8.40
2022-11-14T08:57:49.623Z,8.40
2022-11-14T09:00:17.484Z,8.40
2022-11-14T09:02:44.853Z,8.50
2022-11-14T09:05:11.845Z,8.50
2022-11-14T09:07:38.463Z,8.60
2022-11-14T09:10:05.944Z,8.60
2022-11-14T09:12:33.123Z,8.70
2022-11-14T09:14:59.745Z,8.80
2022-11-14T09:17:26.369Z,8.80
2022-11-14T09:19:53.012Z,8.80
2022-11-14T09:22:19.701Z,8.80
2022-11-14T09:24:47.686Z,8.80
2022-11-14T09:27:14.358Z,8.90
2022-11-14T09:29:41.224Z,8.90
2022-11-14T09:32:07.902Z,8.90
2022-11-14T09:34:34.455Z,8.90
2022-11-14T09:37:01.000Z,9.00
2022-11-14T09:39:27.602Z,9.00
2022-11-14T09:42:16.912Z,9.10
2022-11-14T09:44:49.826Z,9.10
2022-11-14T09:47:21.370Z,9.10
2022-11-14T09:49:51.421Z,9.20
2022-11-14T09:52:35.687Z,9.20
2022-11-14T09:55:19.893Z,9.20
2022-11-14T09:57:47.125Z,9.30
2022-11-14T10:00:22.629Z,9.30
2022-11-14T10:03:15.440Z,9.30
2022-11-14T10:06:00.174Z,9.40
2022-11-14T10:08:26.834Z,9.40
2022-11-14T10:11:02.117Z,9.40
2022-11-14T10:13:52.982Z,9.50
2022-11-14T10:16:31.584Z,9.50
2022-11-14T10:19:22.455Z,9.50
2022-11-14T10:22:09.613Z,9.50
2022-11-14T10:25:03.858Z,9.60
2022-11-14T10:27:37.396Z,9.50
2022-11-14T10:30:13.946Z,9.50
2022-11-14T10:33:13.007Z,9.60
2022-11-14T10:36:00.094Z,9.70
2022-11-14T10:38:43.666Z,9.60
2022-11-14T10:41:19.237Z,9.60
2022-11-14T10:43:55.827Z,9.70
2022-11-14T10:46:39.198Z,9.70
2022-11-14T10:49:19.202Z,9.70
2022-11-14T10:51:57.183Z,9.80
2022-11-14T10:55:00.210Z,9.80
2022-11-14T10:57:28.636Z,9.80
2022-11-14T10:59:55.766Z,9.80
2022-11-14T11:02:22.948Z,9.80
2022-11-14T11:04:49.586Z,9.80
2022-11-14T11:07:42.061Z,9.90
2022-11-14T11:10:39.092Z,9.90
2022-11-14T11:13:05.802Z,9.90
2022-11-14T11:15:40.731Z,9.90
2022-11-14T11:18:30.083Z,9.90
2022-11-14T11:21:14.415Z,9.90
2022-11-14T11:23:55.470Z,9.90
2022-11-14T11:26:31.696Z,10.00
2022-11-14T11:29:14.739Z,10.00
2022-11-14T11:31:51.989Z,10.00
2022-11-14T11:34:27.099Z,10.00
2022-11-14T11:37:05.477Z,10.10
2022-11-14T11:39:40.675Z,10.10
2022-11-14T11:42:12.750Z,10.10
2022-11-14T11:44:45.884Z,10.10
2022-11-14T11:47:16.994Z,10.10
2022-11-14T11:49:53.835Z,10.10
2022-11-14T11:52:35.856Z,10.10
2022-11-14T11:55:17.653Z,10.10
2022-11-14T11:58:06.021Z,10.10
2022-11-14T12:00:33.495Z,10.10
2022-11-14T12:03:00.899Z,10.10
2022-11-14T12:05:56.191Z,10.10
2022-11-14T12:09:10.207Z,10.10
2022-11-14T12:11:39.322Z,10.10
2022-11-14T12:14:39.679Z,10.10
2022-11-14T12:17:34.025Z,10.10
2022-11-14T12:20:19.296Z,10.20
2022-11-14T12:23:16.232Z,10.20
2022-11-14T12:25:48.983Z,10.20
2022-11-14T12:28:34.466Z,10.20
2022-11-14T12:31:05.332Z,10.20
2022-11-14T12:33:37.865Z,10.20
2022-11-14T12:36:11.345Z,10.20
2022-11-14T12:39:20.869Z,10.30
2022-11-14T12:41:47.770Z,10.30
2022-11-14T12:44:38.089Z,10.30
2022-11-14T12:47:04.974Z,10.40
2022-11-14T12:49:39.170Z,10.50
2022-11-14T12:52:41.178Z,10.50
2022-11-14T12:55:26.227Z,10.50
2022-11-14T12:58:22.241Z,10.60
2022-11-14T13:01:03.655Z,10.60
2022-11-14T13:03:56.934Z,10.60
2022-11-14T13:06:38.433Z,10.60
2022-11-14T13:09:29.364Z,10.60
2022-11-14T13:12:15.036Z,10.70
2022-11-14T13:15:11.452Z,10.70
2022-11-14T13:17:58.210Z,10.70
2022-11-14T13:20:52.617Z,10.80
2022-11-14T13:23:25.832Z,10.80
2022-11-14T13:26:10.782Z,10.80
2022-11-14T13:28:37.380Z,10.90
2022-11-14T13:31:16.008Z,10.90
2022-11-14T13:33:51.331Z,10.90
2022-11-14T13:36:36.809Z,11.00
2022-11-14T13:39:18.397Z,11.00
2022-11-14T13:41:47.815Z,11.00
2022-11-14T13:44:30.587Z,11.10
2022-11-14T13:47:06.061Z,11.10
2022-11-14T13:49:40.731Z,11.00
2022-11-14T13:52:07.494Z,11.00
2022-11-14T13:54:34.254Z,11.10
2022-11-14T13:57:19.412Z,11.10
2022-11-14T13:59:57.697Z,11.10
2022-11-14T14:02:48.668Z,11.00
2022-11-14T14:05:46.474Z,11.00
2022-11-14T14:08:40.934Z,10.90
2022-11-14T14:11:29.301Z,11.00
2022-11-14T14:14:12.008Z,10.90
2022-11-14T14:16:44.620Z,10.90
2022-11-14T14:19:25.760Z,10.90
2022-11-14T14:22:11.819Z,11.00
2022-11-14T14:25:16.646Z,11.00
2022-11-14T14:27:58.055Z,11.00
2022-11-14T14:30:24.857Z,11.10
2022-11-14T14:33:03.495Z,11.10
2022-11-14T14:35:37.356Z,11.10
2022-11-14T14:38:12.257Z,11.10
2022-11-14T14:40:41.163Z,11.10
2022-11-14T14:43:13.356Z,11.10
2022-11-14T14:45:51.823Z,11.20
2022-11-14T14:48:23.798Z,11.20
2022-11-14T14:50:55.752Z,11.20
2022-11-14T14:53:30.948Z,11.20
2022-11-14T14:55:59.713Z,11.20
2022-11-14T14:58:30.233Z,11.20
2022-11-14T15:01:11.503Z,11.20
2022-11-14T15:03:42.452Z,11.20
2022-11-14T15:06:34.866Z,11.10
2022-11-14T15:09:10.558Z,11.10
2022-11-14T15:11:41.486Z,11.20
2022-11-14T15:14:15.018Z,11.20
2022-11-14T15:16:42.989Z,11.20
2022-11-14T15:19:13.665Z,11.20
2022-11-14T15:21:40.307Z,11.20
2022-11-14T15:24:18.410Z,11.20
2022-11-14T15:26:50.271Z,11.20
2022-11-14T15:29:21.443Z,11.20
2022-11-14T15:32:05.175Z,11.10
2022-11-14T15:34:40.374Z,11.10
2022-11-14T15:37:16.500Z,11.10
2022-11-14T15:39:44.611Z,11.10
2022-11-14T15:42:30.042Z,11.10
2022-11-14T15:44:57.016Z,11.10
2022-11-14T15:47:57.498Z,11.10
2022-11-14T15:50:28.940Z,11.10
2022-11-14T15:53:06.431Z,11.00
2022-11-14T15:55:33.341Z,11.00
2022-11-14T15:58:26.112Z,11.00
2022-11-14T16:00:52.563Z,11.00
2022-11-14T16:03:21.788Z,11.00
2022-11-14T16:05:48.540Z,10.90
2022-11-14T16:08:15.351Z,10.90
2022-11-14T16:10:42.084Z,10.90
2022-11-14T16:13:08.763Z,10.90
2022-11-14T16:15:35.428Z,10.90
2022-11-14T16:18:04.004Z,10.90
2022-11-14T16:20:36.052Z,10.90
2022-11-14T16:23:02.930Z,10.90
2022-11-14T16:25:31.116Z,10.90
2022-11-14T16:27:57.763Z,10.90
2022-11-14T16:30:25.866Z,10.80
2022-11-14T16:32:53.126Z,10.80
2022-11-14T16:35:24.693Z,10.80
2022-11-14T16:37:53.439Z,10.80
2022-11-14T16:40:23.554Z,10.80
2022-11-14T16:42:52.380Z,10.80
2022-11-14T16:45:22.009Z,10.80
2022-11-14T16:47:49.333Z,10.70
2022-11-14T16:50:16.908Z,10.70
2022-11-14T16:52:43.550Z,10.70
2022-11-14T16:55:11.637Z,10.70
2022-11-14T16:57:39.351Z,10.60
2022-11-14T17:00:08.915Z,10.60
2022-11-14T17:02:35.479Z,10.60
2022-11-14T17:05:03.318Z,10.50
2022-11-14T17:07:32.603Z,10.50
2022-11-14T17:10:02.825Z,10.40
2022-11-14T17:12:29.520Z,10.50
2022-11-14T17:14:56.122Z,10.50
2022-11-14T17:17:22.716Z,10.40
2022-11-14T17:19:49.985Z,10.40
2022-11-14T17:22:18.024Z,10.30
2022-11-14T17:24:45.378Z,10.30
2022-11-14T17:27:12.931Z,10.30
2022-11-14T17:29:39.836Z,10.30
2022-11-14T17:32:06.455Z,10.30
2022-11-14T17:34:33.042Z,10.30
2022-11-14T17:36:59.693Z,10.30
2022-11-14T17:39:26.448Z,10.30
2022-11-14T17:41:53.212Z,10.30
2022-11-14T17:44:19.817Z,10.30
2022-11-14T17:46:47.621Z,10.20
2022-11-14T17:49:14.239Z,10.20
2022-11-14T17:51:40.918Z,10.20
2022-11-14T17:54:07.651Z,10.20
2022-11-14T17:56:34.244Z,10.20
2022-11-14T17:59:00.975Z,10.10
2022-11-14T18:01:30.110Z,10.10
2022-11-14T18:04:01.648Z,10.10
2022-11-14T18:06:31.259Z,10.10
2022-11-14T18:08:57.840Z,10.10
2022-11-14T18:11:24.537Z,10.00
2022-11-14T18:13:54.373Z,10.00
2022-11-14T18:16:21.044Z,10.00
2022-11-14T18:18:47.714Z,10.00
2022-11-14T18:21:19.810Z,10.00
2022-11-14T18:23:54.332Z,9.90
2022-11-14T18:26:26.915Z,9.90
2022-11-14T18:28:58.491Z,9.90
2022-11-14T18:31:25.644Z,9.90
2022-11-14T18:33:52.597Z,9.90
2022-11-14T18:36:19.853Z,9.90
2022-11-14T18:38:46.576Z,9.90
2022-11-14T18:41:15.200Z,9.80
2022-11-14T18:43:42.919Z,9.80
2022-11-14T18:46:12.076Z,9.90
2022-11-14T18:48:39.958Z,10.00
2022-11-14T18:51:10.620Z,10.00
2022-11-14T18:53:37.420Z,9.90
2022-11-14T18:56:06.278Z,9.80
2022-11-14T18:58:33.356Z,9.70
2022-11-14T19:01:21.847Z,9.80
2022-11-14T19:03:48.432Z,9.70
2022-11-14T19:06:15.398Z,9.70
2022-11-14T19:08:42.035Z,9.60
2022-11-14T19:11:29.894Z,9.60
2022-11-14T19:14:00.130Z,9.60
2022-11-14T19:16:26.827Z,9.60
2022-11-14T19:18:54.936Z,9.50
2022-11-14T19:21:21.604Z,9.40
2022-11-14T19:23:48.274Z,9.40
2022-11-14T19:26:14.962Z,9.40
2022-11-14T19:28:41.628Z,9.50
2022-11-14T19:31:09.107Z,9.40
2022-11-14T19:33:38.719Z,9.40
2022-11-14T19:36:06.934Z,9.40
2022-11-14T19:38:33.605Z,9.40
2022-11-14T19:41:13.640Z,9.40
2022-11-14T19:43:42.578Z,9.40
2022-11-14T19:46:09.877Z,9.40
2022-11-14T19:48:37.209Z,9.30
2022-11-14T19:51:10.540Z,9.30
2022-11-14T19:53:40.628Z,9.30
2022-11-14T19:56:13.143Z,9.20
2022-11-14T19:58:41.593Z,9.20
2022-11-14T20:01:11.049Z,9.30
2022-11-14T20:03:38.187Z,9.20
2022-11-14T20:06:13.522Z,9.20
2022-11-14T20:08:40.092Z,9.20
2022-11-14T20:11:06.778Z,9.20
2022-11-14T20:13:36.782Z,9.20
2022-11-14T20:16:13.853Z,9.20
2022-11-14T20:18:41.430Z,9.10
2022-11-14T20:21:12.298Z,9.00
2022-11-14T20:23:39.231Z,9.00
2022-11-14T20:26:11.129Z,9.00
2022-11-14T20:28:39.517Z,9.00
2022-11-14T20:31:12.721Z,9.00
2022-11-14T20:33:41.874Z,8.90
2022-11-14T20:36:14.020Z,9.00
2022-11-14T20:38:41.248Z,8.80
2022-11-14T20:41:07.879Z,8.70
2022-11-14T20:43:34.702Z,8.70
2022-11-14T20:46:06.849Z,8.60
2022-11-14T20:48:34.503Z,8.50
2022-11-14T20:51:05.579Z,8.50
2022-11-14T20:53:33.297Z,8.40
2022-11-14T20:56:00.676Z,8.40
2022-11-14T20:58:28.047Z,8.40
2022-11-14T21:00:54.990Z,8.40
2022-11-14T21:03:22.081Z,8.40
2022-11-14T21:05:48.714Z,8.40
2022-11-14T21:08:18.972Z,8.40
2022-11-14T21:10:48.210Z,8.40
2022-11-14T21:13:36.020Z,8.40
2022-11-14T21:16:06.126Z,8.40
2022-11-14T21:18:33.509Z,8.50
2022-11-14T21:21:06.481Z,8.50
2022-11-14T21:23:33.428Z,8.50
2022-11-14T21:26:05.132Z,8.50
2022-11-14T21:28:32.969Z,8.50
2022-11-14T21:31:00.802Z,8.50
2022-11-14T21:33:29.775Z,8.50
2022-11-14T21:36:11.259Z,8.40
2022-11-14T21:38:47.031Z,8.50
2022-11-14T21:41:16.403Z,8.50
2022-11-14T21:43:44.224Z,8.50
2022-11-14T21:46:11.833Z,8.60
2022-11-14T21:48:41.597Z,8.50
2022-11-14T21:51:21.328Z,8.60
2022-11-14T21:53:49.689Z,8.60
2022-11-14T21:56:22.297Z,8.60
2022-11-14T21:58:49.881Z,8.60
2022-11-14T22:01:37.612Z,8.60
2022-11-14T22:04:14.393Z,8.60
2022-11-14T22:06:42.469Z,8.50
2022-11-14T22:09:10.252Z,8.50
2022-11-14T22:11:40.439Z,8.40
2022-11-14T22:14:07.365Z,8.40
2022-11-14T22:16:35.673Z,8.40
2022-11-14T22:19:05.605Z,8.40
2022-11-14T22:21:32.659Z,8.30
2022-11-14T22:23:59.430Z,8.30
2022-11-14T22:26:26.045Z,8.20
2022-11-14T22:28:52.614Z,8.20
2022-11-14T22:31:21.401Z,8.20
2022-11-14T22:33:50.517Z,8.10
2022-11-14T22:36:22.491Z,8.10
2022-11-14T22:38:51.093Z,8.10
2022-11-14T22:41:20.621Z,8.20
2022-11-14T22:43:47.474Z,8.10
2022-11-14T22:46:16.631Z,8.10
2022-11-14T22:48:44.907Z,8.00
2022-11-14T22:51:25.544Z,8.00
2022-11-14T22:53:54.169Z,8.10
2022-11-14T22:56:23.994Z,8.10
2022-11-14T22:58:51.113Z,8.10
2022-11-14T23:01:21.848Z,8.10
2022-11-14T23:03:53.297Z,8.00
2022-11-14T23:06:20.101Z,8.00
2022-11-14T23:08:46.687Z,8.00
2022-11-14T23:11:16.224Z,8.00
2022-11-14T23:13:48.774Z,8.00
2022-11-14T23:16:18.210Z,8.00
2022-11-14T23:18:45.863Z,8.10
2022-11-14T23:21:18.735Z,8.10
2022-11-14T23:23:45.599Z,8.10
2022-11-14T23:26:15.259Z,8.10
2022-11-14T23:28:41.900Z,8.10
2022-11-14T23:31:09.419Z,8.20
2022-11-14T23:33:36.084Z,8.10
2022-11-14T23:36:02.886Z,8.20
2022-11-14T23:38:32.585Z,8.10
2022-11-14T23:41:02.217Z,8.20
2022-11-14T23:43:29.978Z,8.10
2022-11-14T23:45:57.432Z,8.10
2022-11-14T23:48:24.598Z,8.10
2022-11-14T23:50:52.829Z,8.10
2022-11-14T23:53:20.109Z,8.20
2022-11-14T23:55:58.257Z,8.20
2022-11-14T23:58:26.329Z,8.20
